sensor_id;sensor_type;location;lat;lon;timestamp;temperature;humidity
31263;DHT22;17892;52.080;9.006;2022-08-02T00:00:11;15.20;98.70
31263;DHT22;17892;52.080;9.006;2022-08-02T00:02:39;15.10;98.80
31263;DHT22;17892;52.080;9.006;2022-08-02T00:05:06;15.00;98.70
31263;DHT22;17892;52.080;9.006;2022-08-02T00:07:33;15.00;98.70
31263;DHT22;17892;52.080;9.006;2022-08-02T00:09:59;14.90;98.70
31263;DHT22;17892;52.080;9.006;2022-08-02T00:12:25;14.80;98.60
31263;DHT22;17892;52.080;9.006;2022-08-02T00:14:51;14.80;98.70
31263;DHT22;17892;52.080;9.006;2022-08-02T00:17:17;14.70;98.60
31263;DHT22;17892;52.080;9.006;2022-08-02T00:19:43;14.70;98.70
31263;DHT22;17892;52.080;9.006;2022-08-02T00:22:09;14.60;98.70
31263;DHT22;17892;52.080;9.006;2022-08-02T00:24:34;14.60;98.80
31263;DHT22;17892;52.080;9.006;2022-08-02T00:27:00;14.50;98.80
31263;DHT22;17892;52.080;9.006;2022-08-02T00:29:29;14.40;98.70
31263;DHT22;17892;52.080;9.006;2022-08-02T00:31:56;14.40;98.80
31263;DHT22;17892;52.080;9.006;2022-08-02T00:34:22;14.30;98.80
31263;DHT22;17892;52.080;9.006;2022-08-02T00:36:49;14.30;98.80
31263;DHT22;17892;52.080;9.006;2022-08-02T00:39:15;14.30;98.80
31263;DHT22;17892;52.080;9.006;2022-08-02T00:41:48;14.20;98.80
31263;DHT22;17892;52.080;9.006;2022-08-02T00:44:18;14.20;98.80
31263;DHT22;17892;52.080;9.006;2022-08-02T00:46:45;14.10;98.80
31263;DHT22;17892;52.080;9.006;2022-08-02T00:49:12;14.10;98.80
31263;DHT22;17892;52.080;9.006;2022-08-02T00:51:39;14.00;98.80
31263;DHT22;17892;52.080;9.006;2022-08-02T00:54:06;14.00;98.70
31263;DHT22;17892;52.080;9.006;2022-08-02T00:56:32;13.90;98.80
31263;DHT22;17892;52.080;9.006;2022-08-02T00:58:58;13.90;98.80
31263;DHT22;17892;52.080;9.006;2022-08-02T01:01:23;13.80;98.80
31263;DHT22;17892;52.080;9.006;2022-08-02T01:04:09;13.80;98.90
31263;DHT22;17892;52.080;9.006;2022-08-02T01:06:38;13.70;98.90
31263;DHT22;17892;52.080;9.006;2022-08-02T01:09:05;13.70;99.00
31263;DHT22;17892;52.080;9.006;2022-08-02T01:11:33;13.70;99.00
31263;DHT22;17892;52.080;9.006;2022-08-02T01:14:08;13.60;99.00
31263;DHT22;17892;52.080;9.006;2022-08-02T01:16:39;13.60;99.10
31263;DHT22;17892;52.080;9.006;2022-08-02T01:30:56;13.40;98.90
31263;DHT22;17892;52.080;9.006;2022-08-02T01:33:28;13.30;99.00
31263;DHT22;17892;52.080;9.006;2022-08-02T01:36:00;13.30;99.10
31263;DHT22;17892;52.080;9.006;2022-08-02T01:38:39;13.30;99.10
31263;DHT22;17892;52.080;9.006;2022-08-02T01:41:09;13.20;99.10
31263;DHT22;17892;52.080;9.006;2022-08-02T01:43:39;13.20;99.20
31263;DHT22;17892;52.080;9.006;2022-08-02T01:46:07;13.20;99.20
31263;DHT22;17892;52.080;9.006;2022-08-02T01:48:34;13.20;99.30
31263;DHT22;17892;52.080;9.006;2022-08-02T01:51:02;13.10;99.40
31263;DHT22;17892;52.080;9.006;2022-08-02T01:53:29;13.10;99.40
31263;DHT22;17892;52.080;9.006;2022-08-02T01:55:58;13.10;99.40
31263;DHT22;17892;52.080;9.006;2022-08-02T01:58:30;13.10;99.50
31263;DHT22;17892;52.080;9.006;2022-08-02T02:00:59;13.10;99.50
31263;DHT22;17892;52.080;9.006;2022-08-02T02:03:26;13.10;99.50
31263;DHT22;17892;52.080;9.006;2022-08-02T02:05:55;13.10;99.60
31263;DHT22;17892;52.080;9.006;2022-08-02T02:08:29;13.10;99.70
31263;DHT22;17892;52.080;9.006;2022-08-02T02:10:57;13.10;99.80
31263;DHT22;17892;52.080;9.006;2022-08-02T02:13:25;13.10;99.90
31263;DHT22;17892;52.080;9.006;2022-08-02T02:15:53;13.10;99.90
31263;DHT22;17892;52.080;9.006;2022-08-02T02:18:26;13.10;99.90
31263;DHT22;17892;52.080;9.006;2022-08-02T02:20:54;13.10;99.90
31263;DHT22;17892;52.080;9.006;2022-08-02T02:23:21;13.20;99.90
31263;DHT22;17892;52.080;9.006;2022-08-02T02:25:47;13.20;99.90
31263;DHT22;17892;52.080;9.006;2022-08-02T02:28:22;13.20;99.90
31263;DHT22;17892;52.080;9.006;2022-08-02T02:31:04;13.20;99.90
31263;DHT22;17892;52.080;9.006;2022-08-02T02:33:33;13.30;99.90
31263;DHT22;17892;52.080;9.006;2022-08-02T02:36:02;13.20;99.90
31263;DHT22;17892;52.080;9.006;2022-08-02T02:38:30;13.30;99.90
31263;DHT22;17892;52.080;9.006;2022-08-02T02:41:00;13.30;99.90
31263;DHT22;17892;52.080;9.006;2022-08-02T02:43:29;13.30;99.90
31263;DHT22;17892;52.080;9.006;2022-08-02T02:45:56;13.30;99.90
31263;DHT22;17892;52.080;9.006;2022-08-02T02:48:24;13.30;99.90
31263;DHT22;17892;52.080;9.006;2022-08-02T02:50:51;13.30;99.90
31263;DHT22;17892;52.080;9.006;2022-08-02T02:53:18;13.30;99.90
31263;DHT22;17892;52.080;9.006;2022-08-02T02:55:45;13.30;99.90
31263;DHT22;17892;52.080;9.006;2022-08-02T02:58:11;13.30;99.90
31263;DHT22;17892;52.080;9.006;2022-08-02T03:00:38;13.30;99.90
31263;DHT22;17892;52.080;9.006;2022-08-02T03:03:24;13.20;99.90
31263;DHT22;17892;52.080;9.006;2022-08-02T03:05:50;13.30;99.90
31263;DHT22;17892;52.080;9.006;2022-08-02T03:08:16;13.30;99.90
31263;DHT22;17892;52.080;9.006;2022-08-02T03:10:43;13.30;99.90
31263;DHT22;17892;52.080;9.006;2022-08-02T03:13:10;13.20;99.90
31263;DHT22;17892;52.080;9.006;2022-08-02T03:15:36;13.20;99.90
31263;DHT22;17892;52.080;9.006;2022-08-02T03:18:02;13.30;99.90
31263;DHT22;17892;52.080;9.006;2022-08-02T03:20:28;13.30;99.90
31263;DHT22;17892;52.080;9.006;2022-08-02T03:22:54;13.30;99.90
31263;DHT22;17892;52.080;9.006;2022-08-02T03:25:19;13.30;99.90
31263;DHT22;17892;52.080;9.006;2022-08-02T03:27:46;13.40;99.90
31263;DHT22;17892;52.080;9.006;2022-08-02T03:30:13;13.40;99.90
31263;DHT22;17892;52.080;9.006;2022-08-02T03:32:40;13.50;99.90
31263;DHT22;17892;52.080;9.006;2022-08-02T03:35:10;13.50;99.90
31263;DHT22;17892;52.080;9.006;2022-08-02T03:37:37;13.60;99.90
31263;DHT22;17892;52.080;9.006;2022-08-02T03:40:07;13.70;99.90
31263;DHT22;17892;52.080;9.006;2022-08-02T03:42:34;13.70;99.90
31263;DHT22;17892;52.080;9.006;2022-08-02T03:45:02;13.80;99.90
31263;DHT22;17892;52.080;9.006;2022-08-02T03:47:28;13.90;99.90
31263;DHT22;17892;52.080;9.006;2022-08-02T03:49:55;14.00;99.90
31263;DHT22;17892;52.080;9.006;2022-08-02T03:52:22;14.10;99.90
31263;DHT22;17892;52.080;9.006;2022-08-02T03:54:48;14.20;99.90
31263;DHT22;17892;52.080;9.006;2022-08-02T03:57:14;14.30;99.90
31263;DHT22;17892;52.080;9.006;2022-08-02T03:59:44;14.40;99.90
31263;DHT22;17892;52.080;9.006;2022-08-02T04:02:11;14.50;99.90
31263;DHT22;17892;52.080;9.006;2022-08-02T04:04:38;14.60;99.90
31263;DHT22;17892;52.080;9.006;2022-08-02T04:07:04;14.70;99.90
31263;DHT22;17892;52.080;9.006;2022-08-02T04:09:30;14.80;99.90
31263;DHT22;17892;52.080;9.006;2022-08-02T04:11:56;14.90;99.90
31263;DHT22;17892;52.080;9.006;2022-08-02T04:14:22;15.00;99.90
31263;DHT22;17892;52.080;9.006;2022-08-02T04:16:58;15.00;99.90
31263;DHT22;17892;52.080;9.006;2022-08-02T04:19:37;15.10;99.90
31263;DHT22;17892;52.080;9.006;2022-08-02T04:22:06;15.20;99.90
31263;DHT22;17892;52.080;9.006;2022-08-02T04:24:44;15.20;99.90
31263;DHT22;17892;52.080;9.006;2022-08-02T04:27:12;15.30;99.90
31263;DHT22;17892;52.080;9.006;2022-08-02T04:29:39;15.40;99.90
31263;DHT22;17892;52.080;9.006;2022-08-02T04:32:06;15.40;99.90
31263;DHT22;17892;52.080;9.006;2022-08-02T04:34:32;15.40;99.90
31263;DHT22;17892;52.080;9.006;2022-08-02T04:36:59;15.40;99.90
31263;DHT22;17892;52.080;9.006;2022-08-02T04:39:25;15.40;99.90
31263;DHT22;17892;52.080;9.006;2022-08-02T04:41:51;15.50;99.90
31263;DHT22;17892;52.080;9.006;2022-08-02T04:44:17;15.60;99.90
31263;DHT22;17892;52.080;9.006;2022-08-02T04:46:43;15.60;99.90
31263;DHT22;17892;52.080;9.006;2022-08-02T04:49:10;15.60;99.90
31263;DHT22;17892;52.080;9.006;2022-08-02T04:51:38;15.70;99.90
31263;DHT22;17892;52.080;9.006;2022-08-02T04:54:06;15.80;99.90
31263;DHT22;17892;52.080;9.006;2022-08-02T04:56:32;15.80;99.90
31263;DHT22;17892;52.080;9.006;2022-08-02T04:58:58;16.00;99.90
31263;DHT22;17892;52.080;9.006;2022-08-02T05:01:23;16.20;99.90
31263;DHT22;17892;52.080;9.006;2022-08-02T05:03:49;16.50;99.90
31263;DHT22;17892;52.080;9.006;2022-08-02T05:06:15;16.70;99.90
31263;DHT22;17892;52.080;9.006;2022-08-02T05:08:41;17.00;99.90
31263;DHT22;17892;52.080;9.006;2022-08-02T05:11:06;17.10;99.90
31263;DHT22;17892;52.080;9.006;2022-08-02T05:13:32;17.30;99.90
31263;DHT22;17892;52.080;9.006;2022-08-02T05:15:58;17.40;99.90
31263;DHT22;17892;52.080;9.006;2022-08-02T05:18:26;17.50;99.90
31263;DHT22;17892;52.080;9.006;2022-08-02T05:20:53;17.70;99.90
31263;DHT22;17892;52.080;9.006;2022-08-02T05:23:19;17.80;99.90
31263;DHT22;17892;52.080;9.006;2022-08-02T05:25:45;17.80;99.90
31263;DHT22;17892;52.080;9.006;2022-08-02T05:28:10;18.00;99.90
31263;DHT22;17892;52.080;9.006;2022-08-02T05:30:36;18.10;99.90
31263;DHT22;17892;52.080;9.006;2022-08-02T05:33:02;18.30;99.90
31263;DHT22;17892;52.080;9.006;2022-08-02T05:35:29;18.50;99.90
31263;DHT22;17892;52.080;9.006;2022-08-02T05:37:54;18.80;99.90
31263;DHT22;17892;52.080;9.006;2022-08-02T05:40:20;19.10;99.90
31263;DHT22;17892;52.080;9.006;2022-08-02T05:42:46;19.40;99.90
31263;DHT22;17892;52.080;9.006;2022-08-02T05:45:12;19.70;99.90
31263;DHT22;17892;52.080;9.006;2022-08-02T05:47:38;20.00;99.90
31263;DHT22;17892;52.080;9.006;2022-08-02T05:50:08;20.30;99.90
31263;DHT22;17892;52.080;9.006;2022-08-02T05:55:18;20.90;98.80
31263;DHT22;17892;52.080;9.006;2022-08-02T06:00:40;21.30;98.90
31263;DHT22;17892;52.080;9.006;2022-08-02T06:03:49;21.60;99.00
31263;DHT22;17892;52.080;9.006;2022-08-02T06:06:20;21.80;96.50
31263;DHT22;17892;52.080;9.006;2022-08-02T06:09:00;22.00;98.20
31263;DHT22;17892;52.080;9.006;2022-08-02T06:11:43;22.20;97.10
31263;DHT22;17892;52.080;9.006;2022-08-02T06:14:10;22.40;96.60
31263;DHT22;17892;52.080;9.006;2022-08-02T06:16:37;22.50;97.90
31263;DHT22;17892;52.080;9.006;2022-08-02T06:19:04;22.70;97.80
31263;DHT22;17892;52.080;9.006;2022-08-02T06:21:30;22.90;97.70
31263;DHT22;17892;52.080;9.006;2022-08-02T06:23:57;23.00;97.70
31263;DHT22;17892;52.080;9.006;2022-08-02T06:26:25;23.10;97.30
31263;DHT22;17892;52.080;9.006;2022-08-02T06:28:52;23.20;97.10
31263;DHT22;17892;52.080;9.006;2022-08-02T06:31:19;23.30;96.70
31263;DHT22;17892;52.080;9.006;2022-08-02T06:33:45;23.40;96.60
31263;DHT22;17892;52.080;9.006;2022-08-02T06:42:12;23.60;96.70
31263;DHT22;17892;52.080;9.006;2022-08-02T06:44:40;23.80;97.10
31263;DHT22;17892;52.080;9.006;2022-08-02T06:47:06;23.90;97.20
31263;DHT22;17892;52.080;9.006;2022-08-02T06:49:32;24.00;96.90
31263;DHT22;17892;52.080;9.006;2022-08-02T06:51:57;24.10;97.40
31263;DHT22;17892;52.080;9.006;2022-08-02T06:54:23;24.20;97.70
31263;DHT22;17892;52.080;9.006;2022-08-02T06:56:49;24.40;97.80
31263;DHT22;17892;52.080;9.006;2022-08-02T06:59:14;24.50;97.60
31263;DHT22;17892;52.080;9.006;2022-08-02T07:01:40;24.70;97.40
31263;DHT22;17892;52.080;9.006;2022-08-02T07:04:06;24.80;96.80
31263;DHT22;17892;52.080;9.006;2022-08-02T07:06:32;24.80;96.50
31263;DHT22;17892;52.080;9.006;2022-08-02T07:08:57;24.80;96.30
31263;DHT22;17892;52.080;9.006;2022-08-02T07:11:23;24.70;95.90
31263;DHT22;17892;52.080;9.006;2022-08-02T07:13:49;24.60;95.90
31263;DHT22;17892;52.080;9.006;2022-08-02T07:16:14;24.30;95.80
31263;DHT22;17892;52.080;9.006;2022-08-02T07:18:40;24.10;96.10
31263;DHT22;17892;52.080;9.006;2022-08-02T07:21:06;23.90;95.90
31263;DHT22;17892;52.080;9.006;2022-08-02T07:23:32;23.70;96.30
31263;DHT22;17892;52.080;9.006;2022-08-02T07:25:58;23.50;96.80
31263;DHT22;17892;52.080;9.006;2022-08-02T07:28:23;23.30;97.40
31263;DHT22;17892;52.080;9.006;2022-08-02T07:30:49;23.20;97.50
31263;DHT22;17892;52.080;9.006;2022-08-02T07:33:15;23.10;98.00
31263;DHT22;17892;52.080;9.006;2022-08-02T07:35:41;23.00;98.50
31263;DHT22;17892;52.080;9.006;2022-08-02T07:38:07;22.90;98.20
31263;DHT22;17892;52.080;9.006;2022-08-02T07:40:33;22.80;98.70
31263;DHT22;17892;52.080;9.006;2022-08-02T07:42:59;22.80;99.20
31263;DHT22;17892;52.080;9.006;2022-08-02T07:45:25;22.80;99.70
31263;DHT22;17892;52.080;9.006;2022-08-02T07:47:52;22.90;99.90
31263;DHT22;17892;52.080;9.006;2022-08-02T07:50:19;23.10;99.90
31263;DHT22;17892;52.080;9.006;2022-08-02T07:52:46;23.30;99.90
31263;DHT22;17892;52.080;9.006;2022-08-02T07:55:13;23.70;99.90
31263;DHT22;17892;52.080;9.006;2022-08-02T07:57:40;24.10;99.90
31263;DHT22;17892;52.080;9.006;2022-08-02T08:00:07;24.50;99.90
31263;DHT22;17892;52.080;9.006;2022-08-02T08:02:34;24.90;99.90
31263;DHT22;17892;52.080;9.006;2022-08-02T08:05:00;25.30;99.90
31263;DHT22;17892;52.080;9.006;2022-08-02T08:07:26;25.70;99.90
31263;DHT22;17892;52.080;9.006;2022-08-02T08:09:52;26.20;99.90
31263;DHT22;17892;52.080;9.006;2022-08-02T08:12:18;26.50;99.70
31263;DHT22;17892;52.080;9.006;2022-08-02T08:14:43;26.90;99.70
31263;DHT22;17892;52.080;9.006;2022-08-02T08:17:10;27.20;98.90
31263;DHT22;17892;52.080;9.006;2022-08-02T08:19:36;27.50;98.70
31263;DHT22;17892;52.080;9.006;2022-08-02T08:22:01;27.80;98.60
31263;DHT22;17892;52.080;9.006;2022-08-02T08:24:28;28.10;98.20
31263;DHT22;17892;52.080;9.006;2022-08-02T08:26:55;28.40;96.80
31263;DHT22;17892;52.080;9.006;2022-08-02T08:29:21;28.60;96.30
31263;DHT22;17892;52.080;9.006;2022-08-02T08:31:48;28.90;96.40
31263;DHT22;17892;52.080;9.006;2022-08-02T08:34:15;29.10;96.00
31263;DHT22;17892;52.080;9.006;2022-08-02T08:36:41;29.30;95.90
31263;DHT22;17892;52.080;9.006;2022-08-02T08:39:07;29.50;94.90
31263;DHT22;17892;52.080;9.006;2022-08-02T08:41:34;29.70;93.90
31263;DHT22;17892;52.080;9.006;2022-08-02T08:44:01;29.80;92.90
31263;DHT22;17892;52.080;9.006;2022-08-02T08:46:29;30.00;93.20
31263;DHT22;17892;52.080;9.006;2022-08-02T08:49:26;30.10;93.10
31263;DHT22;17892;52.080;9.006;2022-08-02T08:51:54;30.20;91.70
31263;DHT22;17892;52.080;9.006;2022-08-02T08:54:23;30.20;92.30
31263;DHT22;17892;52.080;9.006;2022-08-02T08:56:50;30.30;92.30
31263;DHT22;17892;52.080;9.006;2022-08-02T08:59:17;30.30;91.80
31263;DHT22;17892;52.080;9.006;2022-08-02T09:01:46;30.30;92.00
31263;DHT22;17892;52.080;9.006;2022-08-02T09:04:11;30.30;90.80
31263;DHT22;17892;52.080;9.006;2022-08-02T09:06:40;30.30;92.10
31263;DHT22;17892;52.080;9.006;2022-08-02T09:09:07;30.30;91.00
31263;DHT22;17892;52.080;9.006;2022-08-02T09:11:33;30.40;92.30
31263;DHT22;17892;52.080;9.006;2022-08-02T09:13:59;30.50;91.30
31263;DHT22;17892;52.080;9.006;2022-08-02T09:16:46;30.50;91.60
31263;DHT22;17892;52.080;9.006;2022-08-02T09:19:23;30.60;87.60
31263;DHT22;17892;52.080;9.006;2022-08-02T09:22:03;30.70;90.00
31263;DHT22;17892;52.080;9.006;2022-08-02T09:24:41;30.90;88.80
31263;DHT22;17892;52.080;9.006;2022-08-02T09:27:13;31.00;87.90
31263;DHT22;17892;52.080;9.006;2022-08-02T09:29:40;31.10;85.30
31263;DHT22;17892;52.080;9.006;2022-08-02T09:32:10;31.20;90.50
31263;DHT22;17892;52.080;9.006;2022-08-02T09:34:49;31.30;90.20
31263;DHT22;17892;52.080;9.006;2022-08-02T09:37:27;31.40;85.10
31263;DHT22;17892;52.080;9.006;2022-08-02T09:39:54;31.40;87.20
31263;DHT22;17892;52.080;9.006;2022-08-02T09:42:20;31.60;90.50
31263;DHT22;17892;52.080;9.006;2022-08-02T09:45:00;31.70;90.40
31263;DHT22;17892;52.080;9.006;2022-08-02T09:47:27;31.80;82.10
31263;DHT22;17892;52.080;9.006;2022-08-02T09:49:55;31.90;87.40
31263;DHT22;17892;52.080;9.006;2022-08-02T09:52:31;32.10;88.10
31263;DHT22;17892;52.080;9.006;2022-08-02T09:55:04;32.10;80.80
31263;DHT22;17892;52.080;9.006;2022-08-02T09:57:30;32.20;80.70
31263;DHT22;17892;52.080;9.006;2022-08-02T09:59:58;32.30;86.60
31263;DHT22;17892;52.080;9.006;2022-08-02T10:02:24;32.30;85.30
31263;DHT22;17892;52.080;9.006;2022-08-02T10:04:50;32.40;83.50
31263;DHT22;17892;52.080;9.006;2022-08-02T10:07:16;32.40;82.30
31263;DHT22;17892;52.080;9.006;2022-08-02T10:09:44;32.40;83.00
31263;DHT22;17892;52.080;9.006;2022-08-02T10:12:11;32.50;82.50
31263;DHT22;17892;52.080;9.006;2022-08-02T10:14:38;32.50;83.20
31263;DHT22;17892;52.080;9.006;2022-08-02T10:17:05;32.60;84.30
31263;DHT22;17892;52.080;9.006;2022-08-02T10:19:31;32.70;83.00
31263;DHT22;17892;52.080;9.006;2022-08-02T10:22:09;32.80;83.70
31263;DHT22;17892;52.080;9.006;2022-08-02T10:24:37;32.80;79.80
31263;DHT22;17892;52.080;9.006;2022-08-02T10:27:06;32.90;84.00
31263;DHT22;17892;52.080;9.006;2022-08-02T10:29:40;33.00;84.30
31263;DHT22;17892;52.080;9.006;2022-08-02T10:32:38;33.10;78.00
31263;DHT22;17892;52.080;9.006;2022-08-02T10:35:11;33.00;75.70
31263;DHT22;17892;52.080;9.006;2022-08-02T10:37:38;33.00;78.50
31263;DHT22;17892;52.080;9.006;2022-08-02T10:40:05;33.00;69.70
31263;DHT22;17892;52.080;9.006;2022-08-02T10:42:54;33.00;82.50
31263;DHT22;17892;52.080;9.006;2022-08-02T10:45:23;33.00;74.80
31263;DHT22;17892;52.080;9.006;2022-08-02T10:48:03;33.10;80.10
31263;DHT22;17892;52.080;9.006;2022-08-02T10:53:31;33.20;72.70
31263;DHT22;17892;52.080;9.006;2022-08-02T10:56:00;33.30;79.40
31263;DHT22;17892;52.080;9.006;2022-08-02T10:58:28;33.30;81.30
31263;DHT22;17892;52.080;9.006;2022-08-02T11:01:03;33.40;78.40
31263;DHT22;17892;52.080;9.006;2022-08-02T11:06:08;33.30;77.70
31263;DHT22;17892;52.080;9.006;2022-08-02T11:08:38;33.20;74.00
31263;DHT22;17892;52.080;9.006;2022-08-02T11:14:01;33.20;72.20
31263;DHT22;17892;52.080;9.006;2022-08-02T11:19:23;33.10;60.60
31263;DHT22;17892;52.080;9.006;2022-08-02T11:24:35;33.10;72.40
31263;DHT22;17892;52.080;9.006;2022-08-02T11:27:04;33.10;74.60
31263;DHT22;17892;52.080;9.006;2022-08-02T11:29:39;33.10;77.00
31263;DHT22;17892;52.080;9.006;2022-08-02T11:32:08;33.20;72.00
31263;DHT22;17892;52.080;9.006;2022-08-02T11:34:43;33.30;74.70
31263;DHT22;17892;52.080;9.006;2022-08-02T11:37:10;33.30;73.30
31263;DHT22;17892;52.080;9.006;2022-08-02T11:39:37;33.30;71.00
31263;DHT22;17892;52.080;9.006;2022-08-02T11:42:03;33.20;72.40
31263;DHT22;17892;52.080;9.006;2022-08-02T11:44:38;33.10;72.50
31263;DHT22;17892;52.080;9.006;2022-08-02T11:47:05;33.10;68.30
31263;DHT22;17892;52.080;9.006;2022-08-02T11:49:35;33.10;73.80
31263;DHT22;17892;52.080;9.006;2022-08-02T11:52:04;33.20;73.80
31263;DHT22;17892;52.080;9.006;2022-08-02T11:54:34;33.30;74.20
31263;DHT22;17892;52.080;9.006;2022-08-02T11:57:21;33.40;73.80
31263;DHT22;17892;52.080;9.006;2022-08-02T11:59:51;33.60;68.80
31263;DHT22;17892;52.080;9.006;2022-08-02T12:02:18;33.80;72.00
31263;DHT22;17892;52.080;9.006;2022-08-02T12:04:57;33.90;66.70
31263;DHT22;17892;52.080;9.006;2022-08-02T12:07:35;34.00;65.80
31263;DHT22;17892;52.080;9.006;2022-08-02T12:10:07;34.00;67.50
31263;DHT22;17892;52.080;9.006;2022-08-02T12:12:49;33.90;69.30
31263;DHT22;17892;52.080;9.006;2022-08-02T12:17:58;33.90;59.20
31263;DHT22;17892;52.080;9.006;2022-08-02T12:20:43;33.70;67.80
31263;DHT22;17892;52.080;9.006;2022-08-02T12:23:09;33.60;67.70
31263;DHT22;17892;52.080;9.006;2022-08-02T12:25:35;33.40;66.70
31263;DHT22;17892;52.080;9.006;2022-08-02T12:28:22;33.10;67.60
31263;DHT22;17892;52.080;9.006;2022-08-02T12:30:58;32.90;66.60
31263;DHT22;17892;52.080;9.006;2022-08-02T12:33:26;32.70;64.00
31263;DHT22;17892;52.080;9.006;2022-08-02T12:35:53;32.50;64.90
31263;DHT22;17892;52.080;9.006;2022-08-02T12:38:20;32.30;67.40
31263;DHT22;17892;52.080;9.006;2022-08-02T12:40:46;32.10;67.90
31263;DHT22;17892;52.080;9.006;2022-08-02T12:43:20;32.10;69.00
31263;DHT22;17892;52.080;9.006;2022-08-02T12:45:55;32.20;69.00
31263;DHT22;17892;52.080;9.006;2022-08-02T12:48:35;32.30;70.20
31263;DHT22;17892;52.080;9.006;2022-08-02T12:51:37;32.40;64.10
31263;DHT22;17892;52.080;9.006;2022-08-02T12:54:17;32.50;60.90
31263;DHT22;17892;52.080;9.006;2022-08-02T12:56:48;32.50;58.00
31263;DHT22;17892;52.080;9.006;2022-08-02T12:59:15;32.40;65.20
31263;DHT22;17892;52.080;9.006;2022-08-02T13:01:42;32.30;68.10
31263;DHT22;17892;52.080;9.006;2022-08-02T13:04:09;32.30;68.30
31263;DHT22;17892;52.080;9.006;2022-08-02T13:06:35;32.40;68.90
31263;DHT22;17892;52.080;9.006;2022-08-02T13:09:02;32.50;70.10
31263;DHT22;17892;52.080;9.006;2022-08-02T13:11:36;32.70;67.00
31263;DHT22;17892;52.080;9.006;2022-08-02T13:14:02;32.90;67.20
31263;DHT22;17892;52.080;9.006;2022-08-02T13:16:28;33.00;64.50
31263;DHT22;17892;52.080;9.006;2022-08-02T13:18:55;33.10;66.80
31263;DHT22;17892;52.080;9.006;2022-08-02T13:21:21;33.20;67.20
31263;DHT22;17892;52.080;9.006;2022-08-02T13:23:46;33.30;63.70
31263;DHT22;17892;52.080;9.006;2022-08-02T13:26:12;33.30;65.30
31263;DHT22;17892;52.080;9.006;2022-08-02T13:28:38;33.40;64.70
31263;DHT22;17892;52.080;9.006;2022-08-02T13:31:08;33.50;64.00
31263;DHT22;17892;52.080;9.006;2022-08-02T13:33:33;33.50;62.80
31263;DHT22;17892;52.080;9.006;2022-08-02T13:35:59;33.50;64.00
31263;DHT22;17892;52.080;9.006;2022-08-02T13:38:25;33.50;62.10
31263;DHT22;17892;52.080;9.006;2022-08-02T13:40:51;33.40;60.60
31263;DHT22;17892;52.080;9.006;2022-08-02T13:43:38;33.30;62.20
31263;DHT22;17892;52.080;9.006;2022-08-02T13:46:05;33.30;63.40
31263;DHT22;17892;52.080;9.006;2022-08-02T13:48:31;33.30;64.40
31263;DHT22;17892;52.080;9.006;2022-08-02T13:50:57;33.30;64.10
31263;DHT22;17892;52.080;9.006;2022-08-02T13:53:23;33.40;63.50
31263;DHT22;17892;52.080;9.006;2022-08-02T13:55:49;33.40;63.10
31263;DHT22;17892;52.080;9.006;2022-08-02T13:58:15;33.50;62.00
31263;DHT22;17892;52.080;9.006;2022-08-02T14:00:41;33.50;62.60
31263;DHT22;17892;52.080;9.006;2022-08-02T14:03:07;33.50;62.10
31263;DHT22;17892;52.080;9.006;2022-08-02T14:05:38;33.40;61.50
31263;DHT22;17892;52.080;9.006;2022-08-02T14:08:05;33.40;59.50
31263;DHT22;17892;52.080;9.006;2022-08-02T14:10:30;33.50;60.70
31263;DHT22;17892;52.080;9.006;2022-08-02T14:12:56;33.40;61.60
31263;DHT22;17892;52.080;9.006;2022-08-02T14:15:22;33.50;61.60
31263;DHT22;17892;52.080;9.006;2022-08-02T14:17:47;33.60;62.10
31263;DHT22;17892;52.080;9.006;2022-08-02T14:20:13;33.70;62.80
31263;DHT22;17892;52.080;9.006;2022-08-02T14:22:39;33.90;61.60
31263;DHT22;17892;52.080;9.006;2022-08-02T14:25:05;33.90;60.50
31263;DHT22;17892;52.080;9.006;2022-08-02T14:27:31;33.90;59.20
31263;DHT22;17892;52.080;9.006;2022-08-02T14:29:57;33.90;58.40
31263;DHT22;17892;52.080;9.006;2022-08-02T14:32:23;33.70;57.90
31263;DHT22;17892;52.080;9.006;2022-08-02T14:34:49;33.60;57.60
31263;DHT22;17892;52.080;9.006;2022-08-02T14:37:15;33.50;58.80
31263;DHT22;17892;52.080;9.006;2022-08-02T14:39:40;33.30;59.30
31263;DHT22;17892;52.080;9.006;2022-08-02T14:42:06;33.30;59.60
31263;DHT22;17892;52.080;9.006;2022-08-02T14:44:32;33.30;57.00
31263;DHT22;17892;52.080;9.006;2022-08-02T14:46:58;33.30;56.60
31263;DHT22;17892;52.080;9.006;2022-08-02T14:49:24;33.30;56.60
31263;DHT22;17892;52.080;9.006;2022-08-02T14:51:51;33.40;57.40
31263;DHT22;17892;52.080;9.006;2022-08-02T14:54:16;33.40;57.90
31263;DHT22;17892;52.080;9.006;2022-08-02T14:56:42;33.40;57.10
31263;DHT22;17892;52.080;9.006;2022-08-02T14:59:08;33.50;58.40
31263;DHT22;17892;52.080;9.006;2022-08-02T15:01:35;33.60;58.70
31263;DHT22;17892;52.080;9.006;2022-08-02T15:04:01;33.70;58.30
31263;DHT22;17892;52.080;9.006;2022-08-02T15:06:27;33.90;56.70
31263;DHT22;17892;52.080;9.006;2022-08-02T15:08:57;33.90;57.00
31263;DHT22;17892;52.080;9.006;2022-08-02T15:11:25;34.00;55.50
31263;DHT22;17892;52.080;9.006;2022-08-02T15:13:51;34.00;53.50
31263;DHT22;17892;52.080;9.006;2022-08-02T15:16:17;34.00;53.50
31263;DHT22;17892;52.080;9.006;2022-08-02T15:18:43;34.00;54.60
31263;DHT22;17892;52.080;9.006;2022-08-02T15:21:09;34.00;54.50
31263;DHT22;17892;52.080;9.006;2022-08-02T15:23:35;34.00;53.50
31263;DHT22;17892;52.080;9.006;2022-08-02T15:26:03;34.00;53.60
31263;DHT22;17892;52.080;9.006;2022-08-02T15:28:29;34.00;51.80
31263;DHT22;17892;52.080;9.006;2022-08-02T15:30:56;33.90;53.50
31263;DHT22;17892;52.080;9.006;2022-08-02T15:33:22;33.80;51.90
31263;DHT22;17892;52.080;9.006;2022-08-02T15:35:48;33.70;53.20
31263;DHT22;17892;52.080;9.006;2022-08-02T15:38:14;33.70;53.30
31263;DHT22;17892;52.080;9.006;2022-08-02T15:40:40;33.60;52.40
31263;DHT22;17892;52.080;9.006;2022-08-02T15:43:08;33.50;52.00
31263;DHT22;17892;52.080;9.006;2022-08-02T15:45:34;33.50;53.20
31263;DHT22;17892;52.080;9.006;2022-08-02T15:48:01;33.40;53.10
31263;DHT22;17892;52.080;9.006;2022-08-02T15:50:27;33.40;53.10
31263;DHT22;17892;52.080;9.006;2022-08-02T15:52:52;33.40;53.20
31263;DHT22;17892;52.080;9.006;2022-08-02T15:55:18;33.30;53.10
31263;DHT22;17892;52.080;9.006;2022-08-02T15:57:44;33.30;53.10
31263;DHT22;17892;52.080;9.006;2022-08-02T16:00:11;33.20;53.00
31263;DHT22;17892;52.080;9.006;2022-08-02T16:02:37;33.30;52.90
31263;DHT22;17892;52.080;9.006;2022-08-02T16:05:03;33.20;53.00
31263;DHT22;17892;52.080;9.006;2022-08-02T16:07:29;33.20;53.00
31263;DHT22;17892;52.080;9.006;2022-08-02T16:09:55;33.10;53.00
31263;DHT22;17892;52.080;9.006;2022-08-02T16:12:20;33.10;53.00
31263;DHT22;17892;52.080;9.006;2022-08-02T16:14:46;33.10;53.40
31263;DHT22;17892;52.080;9.006;2022-08-02T16:17:12;33.10;53.30